^^
Saratoga-Weather Station Historical Data
Daily Summary for February 5, 2020 Units:  Metric    English   Both
Daily Weekly Monthly Yearly Custom
  High: Low: Average:
Temperature: 3.4 °C 1.4 °C 2.4 °C
Dew Point: 2.9 °C 0.8 °C 1.8 °C
Humidity: 97% 93% 96%
Wind Speed: 4.7km/h 0km/h 0.5km/h
Wind Gust: 6.4km/h - -
Wind- - SSE
Pressure: 998.0 hPa 990.2 hPa -
Precipitation: 0.2 mm    
Historical Graphs
 
 
Tabular Data for February 5, 2020
Time Temperature Dew Point Pressure Wind Wind Speed Wind Gust Humidity Rainfall Rate (Hourly) solar
00:04 1.6 °C 1.2 °C 990.2 hPa Calm     97% 0.0 mm 0 W/m2
00:09 1.6 °C 1.2 °C 990.5 hPa Calm     97% 0.0 mm 0 W/m2
00:15 1.6 °C 1.2 °C 990.5 hPa Calm     97% 0.0 mm 0 W/m2
00:20 1.5 °C 1.1 °C 990.5 hPa Calm     97% 0.0 mm 0 W/m2
00:25 1.5 °C 1.1 °C 990.5 hPa Calm     97% 0.0 mm 0 W/m2
00:30 1.4 °C 1 °C 990.5 hPa Calm     97% 0.0 mm 0 W/m2
00:35 1.4 °C 1 °C 990.9 hPa Calm     97% 0.0 mm 0 W/m2
00:40 1.4 °C 0.8 °C 990.5 hPa Calm     96% 0.0 mm 0 W/m2
00:45 1.4 °C 0.8 °C 990.5 hPa Calm     96% 0.0 mm 0 W/m2
00:50 1.5 °C 0.9 °C 990.5 hPa East 1.4 km/h 1.6 km/h 96% 0.0 mm 0 W/m2
00:55 1.5 °C 0.9 °C 990.2 hPa East 3.2 km/h 3.2 km/h 96% 0.0 mm 0 W/m2
01:00 1.7 °C 1.3 °C 990.5 hPa Calm   3.2 km/h 97% 0.0 mm 0 W/m2
01:05 1.7 °C 1.3 °C 990.5 hPa Calm     97% 0.0 mm 0 W/m2
01:10 1.8 °C 1.4 °C 990.5 hPa Calm   1.6 km/h 97% 0.0 mm 0 W/m2
01:15 1.8 °C 1.4 °C 990.5 hPa WSW 1.4 km/h 1.6 km/h 97% 0.0 mm 0 W/m2
01:20 1.8 °C 1.4 °C 990.5 hPa Calm     97% 0.0 mm 0 W/m2
01:25 1.8 °C 1.4 °C 990.5 hPa Calm     97% 0.0 mm 0 W/m2
01:30 1.8 °C 1.4 °C 990.9 hPa Calm     97% 0.0 mm 0 W/m2
01:35 1.7 °C 1.3 °C 990.9 hPa Calm     97% 0.0 mm 0 W/m2
01:40 1.7 °C 1.3 °C 990.9 hPa Calm     97% 0.0 mm 0 W/m2
01:45 1.7 °C 1.3 °C 990.9 hPa Calm     97% 0.0 mm 0 W/m2
01:50 1.7 °C 1.3 °C 990.9 hPa Calm     97% 0.0 mm 0 W/m2
01:55 1.6 °C 1.2 °C 990.9 hPa Calm     97% 0.0 mm 0 W/m2
02:00 1.6 °C 1.2 °C 990.9 hPa Calm     97% 0.0 mm 0 W/m2
02:05 1.6 °C 1.2 °C 991.2 hPa Calm     97% 0.0 mm 0 W/m2
02:10 1.6 °C 1.2 °C 991.2 hPa Calm     97% 0.0 mm 0 W/m2
02:15 1.6 °C 1.2 °C 991.5 hPa Calm     97% 0.0 mm 0 W/m2
02:20 1.6 °C 1.2 °C 991.5 hPa Calm     97% 0.0 mm 0 W/m2
02:25 1.6 °C 1.2 °C 991.5 hPa Calm     97% 0.0 mm 0 W/m2
02:30 1.6 °C 1.2 °C 991.5 hPa Calm     97% 0.0 mm 0 W/m2
02:35 1.6 °C 1.2 °C 991.5 hPa Calm     97% 0.0 mm 0 W/m2
02:40 1.7 °C 1.3 °C 991.9 hPa Calm     97% 0.0 mm 0 W/m2
02:45 1.7 °C 1.3 °C 991.9 hPa Calm     97% 0.0 mm 0 W/m2
02:50 1.7 °C 1.3 °C 991.9 hPa Calm     97% 0.0 mm 0 W/m2
02:55 1.7 °C 1.3 °C 991.9 hPa Calm     97% 0.0 mm 0 W/m2
03:00 1.7 °C 1.3 °C 991.9 hPa Calm     97% 0.0 mm 0 W/m2
03:05 1.7 °C 1.3 °C 991.9 hPa Calm     97% 0.0 mm 0 W/m2
03:10 1.8 °C 1.4 °C 992.2 hPa Calm     97% 0.0 mm 0 W/m2
03:15 1.8 °C 1.4 °C 992.2 hPa Calm     97% 0.0 mm 0 W/m2
03:20 1.9 °C 1.5 °C 992.2 hPa Calm     97% 0.0 mm 0 W/m2
03:25 1.9 °C 1.5 °C 992.2 hPa Calm     97% 0.0 mm 0 W/m2
03:30 2 °C 1.6 °C 992.2 hPa Calm     97% 0.0 mm 0 W/m2
03:35 2 °C 1.6 °C 992.2 hPa Calm     97% 0.0 mm 0 W/m2
03:40 2.1 °C 1.7 °C 992.2 hPa SW 1.4 km/h 3.2 km/h 97% 0.0 mm 0 W/m2
03:45 2.1 °C 1.7 °C 992.2 hPa East 4.7 km/h 4.8 km/h 97% 0.0 mm 0 W/m2
03:50 2.2 °C 1.8 °C 992.5 hPa East 3.2 km/h 3.2 km/h 97% 0.2 mm 0 W/m2
03:55 2.3 °C 1.9 °C 992.5 hPa ESE 1.4 km/h 3.2 km/h 97% 0.2 mm 0 W/m2
04:00 2.3 °C 1.9 °C 992.5 hPa Calm     97% 0.2 mm 0 W/m2
04:05 2.3 °C 1.9 °C 992.5 hPa Calm   3.2 km/h 97% 0.2 mm 0 W/m2
04:10 2.2 °C 1.8 °C 992.5 hPa ENE 3.2 km/h 3.2 km/h 97% 0.2 mm 0 W/m2
04:15 2.2 °C 1.8 °C 992.5 hPa Calm     97% 0.2 mm 0 W/m2
04:20 2.1 °C 1.7 °C 992.5 hPa Calm   3.2 km/h 97% 0.2 mm 0 W/m2
04:25 2 °C 1.6 °C 992.5 hPa Calm     97% 0.2 mm 0 W/m2
04:30 1.9 °C 1.5 °C 992.9 hPa Calm     97% 0.2 mm 0 W/m2
04:35 2 °C 1.6 °C 992.9 hPa ESE 1.4 km/h 1.6 km/h 97% 0.2 mm 0 W/m2
04:40 2.1 °C 1.7 °C 992.9 hPa ESE 1.4 km/h 1.6 km/h 97% 0.2 mm 0 W/m2
04:45 2.1 °C 1.7 °C 992.9 hPa Calm     97% 0.2 mm 0 W/m2
04:50 2.2 °C 1.8 °C 993.2 hPa Calm     97% 0.0 mm 0 W/m2
04:55 2.2 °C 1.8 °C 993.2 hPa Calm     97% 0.0 mm 0 W/m2
05:00 2.3 °C 1.9 °C 993.2 hPa Calm     97% 0.0 mm 0 W/m2
05:05 2.3 °C 1.9 °C 993.2 hPa WSW 1.4 km/h 3.2 km/h 97% 0.0 mm 0 W/m2
05:10 2.4 °C 2 °C 993.2 hPa NW 3.2 km/h 3.2 km/h 97% 0.0 mm 0 W/m2
05:15 2.7 °C 2.3 °C 993.6 hPa NNW 1.4 km/h 3.2 km/h 97% 0.0 mm 0 W/m2
05:20 2.7 °C 2.3 °C 993.6 hPa Calm   1.6 km/h 97% 0.0 mm 0 W/m2
05:25 2.8 °C 2.4 °C 993.6 hPa Calm   1.6 km/h 97% 0.0 mm 0 W/m2
05:30 2.8 °C 2.4 °C 993.6 hPa WNW 3.2 km/h 6.4 km/h 97% 0.0 mm 0 W/m2
05:35 2.9 °C 2.5 °C 993.6 hPa Calm   3.2 km/h 97% 0.0 mm 0 W/m2
05:40 3 °C 2.6 °C 993.6 hPa Calm   6.4 km/h 97% 0.0 mm 0 W/m2
05:45 3 °C 2.6 °C 993.6 hPa North 1.4 km/h 1.6 km/h 97% 0.0 mm 0 W/m2
05:50 3 °C 2.6 °C 993.9 hPa Calm   1.6 km/h 97% 0.0 mm 0 W/m2
05:55 3 °C 2.6 °C 993.9 hPa Calm   1.6 km/h 97% 0.0 mm 0 W/m2
06:01 3 °C 2.6 °C 993.9 hPa North 3.2 km/h 4.8 km/h 97% 0.0 mm 0 W/m2
06:06 3.1 °C 2.7 °C 993.9 hPa Calm   1.6 km/h 97% 0.0 mm 0 W/m2
06:11 3.1 °C 2.7 °C 994.2 hPa North 1.4 km/h 4.8 km/h 97% 0.0 mm 0 W/m2
06:16 3.1 °C 2.7 °C 994.2 hPa Calm   1.6 km/h 97% 0.0 mm 0 W/m2
06:21 3.1 °C 2.7 °C 994.2 hPa Calm     97% 0.0 mm 0 W/m2
06:26 3.1 °C 2.7 °C 994.6 hPa Calm   1.6 km/h 97% 0.0 mm 0 W/m2
06:31 3.1 °C 2.7 °C 994.6 hPa Calm   1.6 km/h 97% 0.0 mm 0 W/m2
06:36 3.1 °C 2.7 °C 994.6 hPa ENE 1.4 km/h 3.2 km/h 97% 0.0 mm 0 W/m2
06:41 3.1 °C 2.7 °C 994.9 hPa Calm   1.6 km/h 97% 0.0 mm 0 W/m2
06:46 3.1 °C 2.7 °C 994.9 hPa Calm     97% 0.0 mm 0 W/m2
06:51 3.1 °C 2.7 °C 994.9 hPa Calm   1.6 km/h 97% 0.0 mm 0 W/m2
06:56 2.9 °C 2.5 °C 995.3 hPa Calm     97% 0.0 mm 0 W/m2
07:01 2.9 °C 2.5 °C 995.3 hPa ENE 1.4 km/h 3.2 km/h 97% 0.0 mm 0 W/m2
07:06 2.9 °C 2.5 °C 995.3 hPa Calm     97% 0.0 mm 0 W/m2
07:11 3 °C 2.6 °C 995.3 hPa Calm   4.8 km/h 97% 0.0 mm 0 W/m2
07:16 3 °C 2.6 °C 995.3 hPa NNE 3.2 km/h 3.2 km/h 97% 0.0 mm 0 W/m2
07:21 3.1 °C 2.7 °C 995.6 hPa Calm     97% 0.0 mm 0 W/m2
07:26 3.2 °C 2.8 °C 995.6 hPa North 1.4 km/h 1.6 km/h 97% 0.0 mm 0 W/m2
07:31 3.3 °C 2.9 °C 995.6 hPa Calm   1.6 km/h 97% 0.0 mm 0 W/m2
07:36 3.3 °C 2.7 °C 995.9 hPa Calm   1.6 km/h 96% 0.0 mm 0 W/m2
07:41 3.3 °C 2.7 °C 995.6 hPa Calm   1.6 km/h 96% 0.0 mm 0 W/m2
07:46 3.3 °C 2.7 °C 995.9 hPa Calm   1.6 km/h 96% 0.0 mm 0 W/m2
07:51 3.4 °C 2.7 °C 995.9 hPa WNW 3.2 km/h 4.8 km/h 95% 0.0 mm 0 W/m2
07:56 3.4 °C 2.7 °C 995.9 hPa Calm   1.6 km/h 95% 0.0 mm 0 W/m2
08:01 3.4 °C 2.5 °C 995.9 hPa Calm   1.6 km/h 94% 0.0 mm 0 W/m2
08:06 3.4 °C 2.5 °C 996.3 hPa Calm     94% 0.0 mm 0 W/m2
08:11 3.4 °C 2.5 °C 996.3 hPa Calm     94% 0.0 mm 0 W/m2
08:16 3.3 °C 2.4 °C 996.3 hPa NW 1.4 km/h 3.2 km/h 94% 0.0 mm 0 W/m2
08:21 3.3 °C 2.4 °C 996.3 hPa Calm   3.2 km/h 94% 0.0 mm 0 W/m2
08:26 3.2 °C 2.2 °C 996.6 hPa Calm     93% 0.0 mm 5 W/m2
08:31 3.2 °C 2.2 °C 996.6 hPa Calm     93% 0.0 mm 5 W/m2
08:36 3.1 °C 2.1 °C 997.0 hPa Calm     93% 0.0 mm 12 W/m2
08:41 3 °C 2.1 °C 996.6 hPa Calm   4.8 km/h 94% 0.0 mm 16 W/m2
08:46 2.9 °C 2 °C 996.6 hPa Calm   1.6 km/h 94% 0.0 mm 18 W/m2
08:51 2.8 °C 1.9 °C 996.6 hPa NE 3.2 km/h 3.2 km/h 94% 0.0 mm 25 W/m2
08:56 2.8 °C 1.9 °C 997.0 hPa Calm   1.6 km/h 94% 0.0 mm 30 W/m2
09:01 2.8 °C 1.9 °C 997.0 hPa Calm     94% 0.0 mm 18 W/m2
09:06 2.8 °C 1.9 °C 997.0 hPa Calm     94% 0.0 mm 19 W/m2
09:11 2.7 °C 1.8 °C 997.0 hPa Calm     94% 0.0 mm 18 W/m2
09:16 2.6 °C 1.7 °C 997.0 hPa Calm     94% 0.0 mm 19 W/m2
09:21 2.5 °C 1.6 °C 997.3 hPa Calm     94% 0.0 mm 33 W/m2
09:26 2.4 °C 1.5 °C 997.3 hPa Calm     94% 0.0 mm 35 W/m2
09:31 2.3 °C 1.4 °C 997.3 hPa Calm     94% 0.0 mm 30 W/m2
09:36 2.3 °C 1.4 °C 997.6 hPa Calm     94% 0.0 mm 26 W/m2
09:41 2.3 °C 1.4 °C 997.3 hPa ENE 3.2 km/h 4.8 km/h 94% 0.0 mm 21 W/m2
09:46 2.3 °C 1.6 °C 997.3 hPa SE 1.4 km/h 1.6 km/h 95% 0.0 mm 21 W/m2
09:51 2.3 °C 1.6 °C 997.3 hPa SE 1.4 km/h 4.8 km/h 95% 0.0 mm 23 W/m2
09:56 2.3 °C 1.4 °C 997.6 hPa Calm   1.6 km/h 94% 0.0 mm 23 W/m2
10:01 2.3 °C 1.4 °C 997.6 hPa Calm   3.2 km/h 94% 0.0 mm 23 W/m2
10:06 2.2 °C 1.5 °C 997.6 hPa Calm     95% 0.0 mm 23 W/m2
10:11 2.2 °C 1.5 °C 997.6 hPa Calm     95% 0.0 mm 23 W/m2
10:16 2.2 °C 1.5 °C 998.0 hPa Calm     95% 0.0 mm 25 W/m2
10:21 2.2 °C 1.5 °C 998.0 hPa SSE 3.2 km/h 4.8 km/h 95% 0.0 mm 26 W/m2
Juneau County Weather
Compliments of Weather Underground - 2 mb